Etusivu
METAR-TAF:

METAR-TAF

Lentoasemat :

Kööpenhaminan lentoasema

Kööpenhamina, Tanska

Leveyspiiri: 55-37N, Pituuspiiri: 012-39E, korkeus merenpinnasta: 5 m

Tämänhetkinen sää

Tämä raportti tehtiin 36 minuuttia sitten, kello 13.20 UTC
Tuuli 16 kn etelästä
Lämpötila 7°C
Kosteus 76%
Ilmanpaine 1002 hPa
Näkyvyys 10 km tai enemmän

METAR: EKCH 121320Z AUTO 19016KT 9999 BKN024/// 07/03 Q1002 NOSIG

Aika: 14:56 (13:56 UTC)

Sääennuste

Tämä raportti tehtiin 2 tuntia ja 48 minuuttia sitten, kello 11.08 UTC
Ennuste voimassa 12. päivästä klo 12 UTC - 13. päivään klo 12 UTC
Tuuli 12 kn etelästä
Näkyvyys 10 km tai enemmän
Hajonneita pilviä 1800 ft:n korkeudessa

TAF: EKCH 121108Z 1212/1312 17012KT 9999 BKN018

Säähavainnot ja -ennusteet yli 4000 lentoasemalta (METAR- ja TAF-raportit).

Käytössä olevat sääasemat on merkitty karttaan keltaisilla ja punaisilla pisteillä.

Aseta hiiri pisteen päälle nähdäksesi sääaseman nimen.

Klikkaa sitten nähdäksesi säähavainnot ja -ennusteet.

Kartan vaihtaminen: klikkaa mustalla rastilla varustettuja vihreitä pisteitä, niin voit zoomata sisään; viivalla varustettua vihreää pistettä, niin voit zoomata ulos tai vihreitä nuolia, niin pääset viereisille kartoille.


METAR-TAF: